Time;durP1;ratioP1;P1;durP2;ratioP2;P2;SDS_P1;SDS_P2;PMS_P1;PMS_P2;Temp;Humidity;BMP_temperature;BMP_pressure;BME280_temperature;BME280_humidity;BME280_pressure;Samples;Min_cycle;Max_cycle;Signal;HPM_P1;HPM_P2
2022/10/09 00:00:36;;;;;;;8.23;2.93;;;10.90;99.90;;;;;;5034769;28;20440;-50
2022/10/09 00:03:04;;;;;;;5.90;2.40;;;10.70;99.90;;;;;;5017022;28;20872;-50
2022/10/09 00:05:30;;;;;;;6.47;3.47;;;10.70;99.90;;;;;;5034984;28;20433;-50
2022/10/09 00:07:57;;;;;;;11.30;3.60;;;11.20;99.90;;;;;;5035114;28;20440;-49
2022/10/09 00:10:24;;;;;;;4.23;2.77;;;11.00;99.90;;;;;;5034505;28;20427;-50
2022/10/09 00:12:50;;;;;;;7.23;2.83;;;10.60;99.90;;;;;;5034792;28;20452;-50
2022/10/09 00:15:17;;;;;;;6.83;2.90;;;11.30;99.90;;;;;;5034637;28;20484;-50
2022/10/09 00:17:44;;;;;;;7.63;2.90;;;10.90;99.90;;;;;;5034617;28;20440;-50
2022/10/09 00:20:12;;;;;;;9.87;2.80;;;10.40;99.90;;;;;;5034326;28;20439;-51
2022/10/09 00:22:39;;;;;;;7.57;3.30;;;10.30;99.90;;;;;;5034706;28;20434;-49
2022/10/09 00:25:06;;;;;;;3.90;2.23;;;10.50;99.90;;;;;;5034788;28;20749;-49
2022/10/09 00:27:33;;;;;;;6.87;2.70;;;10.80;99.90;;;;;;5033791;28;20806;-49
2022/10/09 00:29:59;;;;;;;5.17;2.63;;;11.20;99.90;;;;;;5016192;28;20451;-49
2022/10/09 00:32:26;;;;;;;5.50;2.80;;;10.90;99.90;;;;;;5016563;28;20873;-50
2022/10/09 00:34:53;;;;;;;6.60;3.30;;;10.30;99.90;;;;;;5034407;28;20480;-49
2022/10/09 00:37:20;;;;;;;9.40;3.40;;;11.00;99.90;;;;;;5034166;28;20429;-50
2022/10/09 00:39:47;;;;;;;8.77;3.10;;;11.00;99.90;;;;;;5033894;28;20436;-49
2022/10/09 00:42:14;;;;;;;9.23;2.97;;;10.70;99.90;;;;;;5034134;28;21043;-49
2022/10/09 00:44:56;;;;;;;9.13;3.13;;;10.60;99.90;;;;;;5034177;28;20939;-50
2022/10/09 00:47:26;;;;;;;6.00;2.67;;;10.70;99.90;;;;;;5034421;28;20435;-49
2022/10/09 00:49:55;;;;;;;14.77;3.57;;;10.40;99.90;;;;;;5033897;28;20446;-51
2022/10/09 00:52:25;;;;;;;14.43;4.30;;;11.00;99.90;;;;;;5033954;28;20780;-48
2022/10/09 00:54:53;;;;;;;11.30;4.47;;;10.30;99.90;;;;;;5034169;28;20942;-50
2022/10/09 00:57:20;;;;;;;7.70;3.90;;;11.00;99.90;;;;;;5034294;28;20435;-49
2022/10/09 00:59:47;;;;;;;7.30;4.00;;;10.70;99.90;;;;;;5033760;28;20436;-50
2022/10/09 01:02:13;;;;;;;9.97;4.03;;;10.50;99.90;;;;;;5015882;28;20444;-50
2022/10/09 01:04:40;;;;;;;9.23;3.70;;;10.40;99.90;;;;;;5033959;28;20432;-50
2022/10/09 01:07:18;;;;;;;12.57;3.90;;;10.60;99.90;;;;;;5033907;28;20817;-51
2022/10/09 01:09:54;;;;;;;6.00;3.37;;;10.60;99.90;;;;;;5033478;28;20439;-51
2022/10/09 01:12:30;;;;;;;6.53;3.93;;;10.90;99.90;;;;;;5033640;28;20451;-50
2022/10/09 01:15:03;;;;;;;11.73;3.33;;;10.60;99.90;;;;;;5033701;28;20478;-49
2022/10/09 01:17:35;;;;;;;9.07;3.70;;;10.70;99.90;;;;;;5033695;28;20428;-49
2022/10/09 01:20:25;;;;;;;7.20;3.27;;;10.50;99.90;;;;;;5033359;28;20439;-50
2022/10/09 01:23:03;;;;;;;5.33;2.80;;;10.30;99.90;;;;;;5030759;28;20475;-50
2022/10/09 01:25:36;;;;;;;10.33;3.80;;;10.40;99.90;;;;;;5033878;28;20448;-50
2022/10/09 01:28:06;;;;;;;13.77;4.57;;;10.00;99.90;;;;;;5033487;28;20436;-50
2022/10/09 01:30:34;;;;;;;5.27;2.53;;;10.60;99.90;;;;;;5033116;28;20437;-50
2022/10/09 01:33:02;;;;;;;8.20;3.00;;;10.80;99.90;;;;;;5032601;28;20463;-50
2022/10/09 01:35:30;;;;;;;5.87;4.10;;;10.30;99.90;;;;;;5033315;28;20475;-50
2022/10/09 01:37:57;;;;;;;5.27;3.00;;;10.20;99.90;;;;;;5033065;28;20436;-49
2022/10/09 01:40:25;;;;;;;7.13;2.93;;;10.30;99.90;;;;;;5032723;28;20496;-50
2022/10/09 01:42:52;;;;;;;7.73;3.70;;;9.70;99.90;;;;;;5033108;28;20448;-50
2022/10/09 01:45:20;;;;;;;9.00;3.23;;;9.60;99.90;;;;;;5033039;28;20431;-50
2022/10/09 01:47:47;;;;;;;5.57;2.63;;;10.60;99.90;;;;;;5032893;28;20956;-49
2022/10/09 01:50:21;;;;;;;11.17;3.30;;;10.60;99.90;;;;;;5032740;28;20443;-51
2022/10/09 01:52:51;;;;;;;6.33;3.30;;;10.10;99.90;;;;;;5033026;28;20824;-50
2022/10/09 01:55:31;;;;;;;9.73;3.40;;;10.20;99.90;;;;;;5032992;28;20490;-50
2022/10/09 01:58:06;;;;;;;8.10;3.20;;;10.30;99.90;;;;;;5032968;28;20936;-49
2022/10/09 02:00:37;;;;;;;9.30;3.37;;;10.20;99.90;;;;;;5032440;28;20781;-49
2022/10/09 02:03:08;;;;;;;12.63;3.80;;;10.60;99.90;;;;;;5032221;28;20459;-50
2022/10/09 02:05:36;;;;;;;7.93;2.73;;;10.20;99.90;;;;;;5032842;28;20446;-50
2022/10/09 02:08:03;;;;;;;10.73;3.13;;;10.00;99.90;;;;;;5032800;28;20796;-50
2022/10/09 02:10:32;;;;;;;8.50;2.90;;;10.20;99.90;;;;;;5032330;28;20966;-50
2022/10/09 02:13:00;;;;;;;9.00;3.00;;;10.10;99.90;;;;;;5032537;28;20467;-50
2022/10/09 02:15:30;;;;;;;10.00;3.50;;;10.20;99.90;;;;;;5032635;28;20479;-51
2022/10/09 02:18:04;;;;;;;8.90;3.60;;;9.90;99.90;;;;;;5014724;28;20444;-50
2022/10/09 02:20:34;;;;;;;9.30;3.57;;;9.40;99.90;;;;;;5032148;28;20434;-50
2022/10/09 02:23:05;;;;;;;9.23;3.33;;;9.90;99.90;;;;;;5032147;28;20447;-50
2022/10/09 02:25:32;;;;;;;8.70;2.67;;;10.20;99.90;;;;;;5032438;28;20428;-49
2022/10/09 02:28:00;;;;;;;11.47;3.00;;;10.40;99.90;;;;;;5032375;28;20431;-50
2022/10/09 02:30:33;;;;;;;9.80;4.10;;;10.00;99.90;;;;;;5014078;28;20452;-50
2022/10/09 02:33:01;;;;;;;10.93;2.60;;;10.10;99.90;;;;;;5032172;28;20463;-50
2022/10/09 02:35:28;;;;;;;9.70;2.80;;;10.30;99.90;;;;;;5032061;28;20471;-50
2022/10/09 02:37:55;;;;;;;11.80;3.83;;;10.50;99.90;;;;;;5032236;28;20439;-51
2022/10/09 02:40:22;;;;;;;5.67;2.83;;;9.90;99.90;;;;;;5032049;28;20443;-49
2022/10/09 02:42:48;;;;;;;9.10;3.53;;;9.90;99.90;;;;;;5032044;28;20451;-49
2022/10/09 02:45:15;;;;;;;10.77;3.10;;;9.90;99.90;;;;;;5032197;28;20443;-49
2022/10/09 02:47:41;;;;;;;11.57;3.10;;;10.20;99.90;;;;;;5031672;28;20439;-50
2022/10/09 02:50:10;;;;;;;6.57;3.33;;;9.70;99.90;;;;;;5031592;28;20438;-50
2022/10/09 02:52:36;;;;;;;7.23;2.67;;;10.40;99.90;;;;;;5031450;28;20430;-49
2022/10/09 02:55:03;;;;;;;8.00;3.17;;;9.70;99.90;;;;;;5031903;28;20483;-50
2022/10/09 02:57:30;;;;;;;9.40;3.07;;;10.20;99.90;;;;;;5031976;28;20436;-49
2022/10/09 02:59:57;;;;;;;7.27;2.90;;;10.40;99.90;;;;;;5031595;28;20439;-49
2022/10/09 03:02:24;;;;;;;9.03;3.27;;;10.00;99.90;;;;;;5031703;28;20976;-51
2022/10/09 03:04:50;;;;;;;9.10;3.80;;;10.00;99.90;;;;;;5031773;28;20522;-51
2022/10/09 03:07:18;;;;;;;10.63;3.77;;;9.80;99.90;;;;;;5031807;28;20439;-50
2022/10/09 03:09:45;;;;;;;7.60;3.30;;;10.20;99.90;;;;;;5031485;28;20459;-49
2022/10/09 03:12:12;;;;;;;7.57;3.07;;;9.80;99.90;;;;;;5031775;28;20432;-49
2022/10/09 03:14:39;;;;;;;8.33;3.23;;;9.80;99.90;;;;;;5031629;28;20479;-49
2022/10/09 03:17:05;;;;;;;9.73;3.20;;;9.90;99.90;;;;;;5031620;28;20402;-49
2022/10/09 03:19:32;;;;;;;7.13;3.20;;;9.70;99.90;;;;;;5031330;28;20928;-51
2022/10/09 03:21:59;;;;;;;6.17;2.80;;;10.10;99.90;;;;;;5031878;28;20431;-50
2022/10/09 03:24:26;;;;;;;8.20;2.97;;;9.80;99.90;;;;;;5031690;28;20431;-50
2022/10/09 03:26:53;;;;;;;7.87;2.90;;;9.80;99.90;;;;;;5031619;28;20431;-50
2022/10/09 03:29:20;;;;;;;9.27;3.33;;;9.50;99.90;;;;;;5031337;28;20432;-50
2022/10/09 03:31:46;;;;;;;6.13;2.70;;;10.20;99.90;;;;;;5031380;28;20436;-50
2022/10/09 03:34:13;;;;;;;4.97;2.40;;;9.70;99.90;;;;;;5031375;28;20475;-50
2022/10/09 03:36:41;;;;;;;11.70;3.30;;;9.60;99.90;;;;;;5031730;28;20435;-50
2022/10/09 03:39:07;;;;;;;16.17;3.70;;;9.60;99.90;;;;;;5031355;28;20431;-50
2022/10/09 03:41:35;;;;;;;6.63;3.03;;;9.90;99.90;;;;;;5031512;28;20435;-50
2022/10/09 03:44:02;;;;;;;10.57;3.43;;;10.00;99.90;;;;;;5031473;28;20960;-50
2022/10/09 03:46:28;;;;;;;8.23;3.10;;;9.50;99.90;;;;;;5031424;28;20436;-50
2022/10/09 03:48:55;;;;;;;10.30;5.60;;;9.80;99.90;;;;;;5013337;28;20426;-50
2022/10/09 03:51:22;;;;;;;10.33;3.97;;;10.10;99.90;;;;;;5013918;28;20451;-50
2022/10/09 03:53:49;;;;;;;12.30;3.93;;;10.10;99.90;;;;;;5031392;28;20463;-50
2022/10/09 03:56:15;;;;;;;6.10;3.00;;;9.70;99.90;;;;;;5031340;28;20471;-51
2022/10/09 03:58:43;;;;;;;5.33;2.80;;;9.40;99.90;;;;;;5030900;28;20439;-50
2022/10/09 04:01:10;;;;;;;10.13;3.27;;;9.50;99.90;;;;;;5013449;28;21024;-50
2022/10/09 04:03:36;;;;;;;6.27;3.57;;;9.90;99.90;;;;;;5032840;28;20978;-49
2022/10/09 04:06:03;;;;;;;11.63;3.13;;;9.60;99.90;;;;;;5017397;28;20455;-50
2022/10/09 04:08:30;;;;;;;7.53;2.90;;;9.60;99.90;;;;;;5034970;28;20807;-50
2022/10/09 04:10:57;;;;;;;8.83;3.23;;;10.00;99.90;;;;;;5035586;28;20428;-50
2022/10/09 04:13:24;;;;;;;16.97;3.83;;;9.70;99.90;;;;;;5034791;28;20459;-50
2022/10/09 04:15:53;;;;;;;11.13;3.50;;;9.60;99.90;;;;;;5034769;28;20831;-49
2022/10/09 04:18:19;;;;;;;7.50;3.73;;;10.00;99.90;;;;;;5034659;28;20458;-51
2022/10/09 04:20:50;;;;;;;11.10;3.37;;;9.40;99.90;;;;;;5034633;28;20462;-50
2022/10/09 04:23:16;;;;;;;11.30;3.07;;;9.80;99.90;;;;;;5034829;28;20478;-50
2022/10/09 04:25:43;;;;;;;8.10;3.40;;;9.70;99.90;;;;;;5035006;28;20451;-50
2022/10/09 04:28:10;;;;;;;6.47;3.07;;;9.40;99.90;;;;;;5034556;28;20436;-51
2022/10/09 04:30:36;;;;;;;4.83;2.90;;;9.40;99.90;;;;;;5034660;28;20538;-51
2022/10/09 04:33:05;;;;;;;10.10;3.27;;;9.30;99.90;;;;;;5035054;28;20452;-52
2022/10/09 04:35:31;;;;;;;7.33;3.10;;;9.50;99.90;;;;;;5034615;28;20477;-51
2022/10/09 04:37:58;;;;;;;11.93;3.63;;;9.00;99.90;;;;;;5034989;28;20527;-51
2022/10/09 04:40:25;;;;;;;22.40;4.03;;;9.40;99.90;;;;;;5034130;28;20450;-50
2022/10/09 04:42:51;;;;;;;8.53;3.00;;;9.50;99.90;;;;;;5034683;28;20857;-51
2022/10/09 04:45:18;;;;;;;14.60;3.87;;;9.90;99.90;;;;;;5016728;28;20546;-51
2022/10/09 04:47:45;;;;;;;11.63;3.00;;;9.60;99.90;;;;;;5034202;28;20467;-52
2022/10/09 04:50:14;;;;;;;9.23;3.37;;;9.60;99.90;;;;;;5034377;28;20439;-51
2022/10/09 04:52:57;;;;;;;13.03;4.00;;;9.20;99.90;;;;;;5034125;28;20467;-51
2022/10/09 04:55:23;;;;;;;6.43;3.87;;;9.40;99.90;;;;;;5034212;28;20482;-51
2022/10/09 04:57:50;;;;;;;12.10;4.07;;;9.60;99.90;;;;;;5034393;28;20446;-51
2022/10/09 05:00:17;;;;;;;8.90;4.17;;;9.70;99.90;;;;;;5016041;28;20455;-51
2022/10/09 05:02:43;;;;;;;12.90;3.57;;;9.80;99.90;;;;;;5034046;28;20960;-50
2022/10/09 05:05:10;;;;;;;10.53;3.73;;;9.20;99.90;;;;;;5034088;28;20451;-51
2022/10/09 05:07:38;;;;;;;9.50;3.90;;;9.30;99.90;;;;;;5033976;28;20442;-51
2022/10/09 05:10:06;;;;;;;8.50;3.60;;;9.70;99.90;;;;;;5015857;28;20817;-51
2022/10/09 05:12:32;;;;;;;6.57;3.80;;;9.30;99.90;;;;;;5033835;28;20960;-51
2022/10/09 05:14:59;;;;;;;10.93;3.90;;;9.30;99.90;;;;;;5033441;28;20482;-51
2022/10/09 05:17:26;;;;;;;11.70;5.40;;;9.80;99.90;;;;;;5033799;28;20431;-51
2022/10/09 05:19:52;;;;;;;12.27;4.80;;;9.30;99.90;;;;;;5033227;28;20453;-51
2022/10/09 05:22:19;;;;;;;12.97;3.83;;;9.30;99.90;;;;;;5033587;28;20435;-51
2022/10/09 05:24:47;;;;;;;11.27;4.07;;;9.40;99.90;;;;;;5033715;28;20436;-51
2022/10/09 05:27:14;;;;;;;13.90;5.73;;;9.00;99.90;;;;;;5033619;28;20434;-53
2022/10/09 05:29:40;;;;;;;12.00;5.13;;;9.40;99.90;;;;;;5033261;28;20440;-50
2022/10/09 05:32:07;;;;;;;8.73;4.00;;;9.20;99.90;;;;;;5033288;28;20807;-52
2022/10/09 05:34:34;;;;;;;13.07;4.57;;;9.80;99.90;;;;;;5033458;28;20442;-54
2022/10/09 05:37:01;;;;;;;11.57;4.53;;;9.20;99.90;;;;;;5033422;28;20475;-51
2022/10/09 05:39:27;;;;;;;5.93;3.43;;;9.10;99.90;;;;;;5033088;28;20451;-50
2022/10/09 05:41:56;;;;;;;9.00;3.13;;;9.40;99.90;;;;;;5033369;28;20445;-50
2022/10/09 05:44:22;;;;;;;8.50;4.00;;;9.40;99.90;;;;;;5033361;28;20459;-51
2022/10/09 05:46:49;;;;;;;8.20;4.43;;;9.10;99.90;;;;;;5033250;28;20440;-51
2022/10/09 05:49:15;;;;;;;11.60;4.03;;;9.50;99.90;;;;;;5032813;28;20434;-52
2022/10/09 05:51:42;;;;;;;11.57;4.60;;;9.80;99.90;;;;;;5033413;28;20432;-51
2022/10/09 05:54:13;;;;;;;9.07;3.87;;;9.50;99.90;;;;;;5033199;28;21027;-52
2022/10/09 05:56:41;;;;;;;12.63;3.83;;;9.50;99.90;;;;;;5033038;28;20893;-52
2022/10/09 05:59:10;;;;;;;8.20;3.63;;;9.60;99.90;;;;;;5032646;28;20467;-52
2022/10/09 06:01:38;;;;;;;9.37;3.43;;;9.20;99.90;;;;;;5033015;28;20432;-51
2022/10/09 06:04:08;;;;;;;8.23;3.70;;;9.50;99.90;;;;;;5032809;28;20454;-51
2022/10/09 06:06:37;;;;;;;11.30;3.60;;;9.40;99.90;;;;;;5032973;28;20489;-50
2022/10/09 06:09:05;;;;;;;5.00;3.87;;;9.50;99.90;;;;;;5032518;28;20427;-51
2022/10/09 06:11:33;;;;;;;13.03;4.10;;;9.50;99.90;;;;;;5032857;28;20439;-51
2022/10/09 06:14:02;;;;;;;11.13;3.80;;;10.00;99.90;;;;;;5032642;28;20504;-52
2022/10/09 06:16:32;;;;;;;11.93;4.43;;;9.80;99.90;;;;;;5032550;28;20478;-51
2022/10/09 06:18:59;;;;;;;6.73;3.97;;;10.40;99.90;;;;;;5032182;28;20427;-52
2022/10/09 06:21:26;;;;;;;11.23;3.53;;;10.40;99.90;;;;;;5032648;28;20443;-51
2022/10/09 06:23:54;;;;;;;9.10;4.13;;;9.90;99.90;;;;;;5032474;28;20508;-52
2022/10/09 06:26:22;;;;;;;12.20;3.50;;;10.00;99.90;;;;;;5031893;28;20440;-54
2022/10/09 06:28:49;;;;;;;9.57;4.00;;;10.10;99.90;;;;;;5032080;28;20443;-52
2022/10/09 06:31:19;;;;;;;9.80;3.50;;;10.50;99.90;;;;;;5032489;28;20439;-56
2022/10/09 06:33:48;;;;;;;9.10;4.27;;;10.40;99.90;;;;;;5032132;28;20856;-52
2022/10/09 06:36:17;;;;;;;9.37;4.10;;;9.80;99.90;;;;;;5014377;28;20570;-52
2022/10/09 06:38:44;;;;;;;15.50;4.27;;;10.30;99.90;;;;;;5032025;28;20431;-52
2022/10/09 06:41:12;;;;;;;9.40;3.77;;;10.60;99.90;;;;;;5032051;28;20443;-51
2022/10/09 06:43:39;;;;;;;8.73;4.60;;;10.20;99.90;;;;;;5032076;28;20464;-51
2022/10/09 06:46:09;;;;;;;8.20;3.97;;;10.30;99.90;;;;;;5031965;28;20960;-51
2022/10/09 06:48:37;;;;;;;10.33;3.77;;;10.20;99.90;;;;;;5031987;28;20428;-52
2022/10/09 06:51:07;;;;;;;7.40;4.50;;;10.30;99.90;;;;;;5032105;28;20432;-51
2022/10/09 06:53:35;;;;;;;9.77;4.30;;;10.50;99.90;;;;;;5031921;28;20455;-52
2022/10/09 06:56:01;;;;;;;6.63;4.10;;;10.80;99.90;;;;;;5031804;28;20474;-52
2022/10/09 06:58:28;;;;;;;13.27;4.20;;;10.80;99.90;;;;;;5031597;28;20432;-53
2022/10/09 07:01:03;;;;;;;8.53;3.80;;;10.90;99.90;;;;;;5032064;28;20446;-51
2022/10/09 07:03:30;;;;;;;11.50;4.33;;;10.00;99.90;;;;;;5031904;28;20534;-51
2022/10/09 07:06:07;;;;;;;9.47;4.73;;;10.20;99.90;;;;;;5031862;28;20506;-51
2022/10/09 07:08:34;;;;;;;10.37;4.07;;;10.50;99.90;;;;;;5031320;28;20436;-51
2022/10/09 07:11:07;;;;;;;10.33;4.27;;;10.50;99.90;;;;;;5031731;28;20431;-52
2022/10/09 07:13:34;;;;;;;7.70;4.40;;;10.80;99.90;;;;;;5031735;28;20824;-52
2022/10/09 07:16:00;;;;;;;10.60;4.57;;;10.80;99.90;;;;;;5031940;28;20477;-52
2022/10/09 07:18:27;;;;;;;9.97;3.70;;;10.00;99.90;;;;;;5031566;28;20436;-52
2022/10/09 07:20:53;;;;;;;10.77;4.70;;;10.40;99.90;;;;;;5031531;28;20449;-51
2022/10/09 07:23:21;;;;;;;7.77;4.60;;;10.80;99.90;;;;;;5031534;28;21009;-51
2022/10/09 07:25:48;;;;;;;8.63;4.07;;;11.30;99.90;;;;;;5031599;28;20428;-52
2022/10/09 07:28:15;;;;;;;5.73;4.47;;;10.70;99.90;;;;;;5031700;28;20879;-51
2022/10/09 07:30:41;;;;;;;11.37;4.20;;;10.80;99.90;;;;;;5031098;28;21028;-52
2022/10/09 07:33:08;;;;;;;9.53;4.60;;;11.20;99.90;;;;;;5031328;28;20471;-52
2022/10/09 07:35:34;;;;;;;17.33;5.33;;;10.80;99.90;;;;;;5031287;28;20483;-51
2022/10/09 07:38:02;;;;;;;10.57;3.30;;;11.00;99.90;;;;;;5033775;28;20442;-51
2022/10/09 07:40:33;;;;;;;7.90;4.00;;;11.30;99.90;;;;;;5035375;28;20813;-52
2022/10/09 07:42:59;;;;;;;14.10;4.27;;;11.30;99.90;;;;;;5035448;28;20454;-52
2022/10/09 07:45:26;;;;;;;6.17;3.70;;;11.00;99.90;;;;;;5035354;28;20948;-52
2022/10/09 07:47:53;;;;;;;5.73;4.10;;;11.00;99.90;;;;;;5035457;28;20515;-51
2022/10/09 07:50:19;;;;;;;13.97;4.30;;;11.30;99.90;;;;;;5035243;28;20462;-52
2022/10/09 07:52:46;;;;;;;10.70;4.73;;;11.60;99.90;;;;;;5035480;28;20452;-51
2022/10/09 07:55:12;;;;;;;9.73;3.77;;;11.30;99.90;;;;;;5035422;28;20456;-51
2022/10/09 07:57:40;;;;;;;9.70;4.47;;;11.20;99.90;;;;;;5035672;28;20487;-52
2022/10/09 08:00:08;;;;;;;6.73;3.20;;;11.20;99.90;;;;;;5035032;28;20440;-51
2022/10/09 08:02:39;;;;;;;10.30;4.50;;;11.10;99.90;;;;;;5035284;28;20454;-52
2022/10/09 08:05:06;;;;;;;7.60;3.73;;;11.50;99.90;;;;;;5035209;28;20450;-52
2022/10/09 08:07:32;;;;;;;9.57;4.10;;;11.60;99.90;;;;;;5034914;28;20858;-52
2022/10/09 08:09:59;;;;;;;12.10;4.47;;;11.50;99.90;;;;;;5034818;28;20774;-53
2022/10/09 08:12:25;;;;;;;8.07;3.33;;;11.70;99.90;;;;;;5035103;28;20434;-51
2022/10/09 08:14:53;;;;;;;11.03;2.67;;;11.60;99.90;;;;;;5034919;28;20407;-52
2022/10/09 08:17:20;;;;;;;14.97;4.43;;;11.50;99.90;;;;;;5034583;28;20585;-52
2022/10/09 08:19:46;;;;;;;8.83;4.30;;;11.60;99.90;;;;;;5034653;28;20427;-52
2022/10/09 08:22:13;;;;;;;10.50;4.43;;;11.90;99.90;;;;;;5016832;28;20447;-51
2022/10/09 08:24:40;;;;;;;8.53;3.90;;;11.30;99.90;;;;;;5034918;28;20921;-51
2022/10/09 08:27:06;;;;;;;8.87;3.13;;;11.40;99.90;;;;;;5034620;28;20950;-51
2022/10/09 08:29:33;;;;;;;5.83;3.70;;;11.40;99.90;;;;;;5034144;28;20436;-51
2022/10/09 08:32:01;;;;;;;14.10;4.53;;;11.50;99.90;;;;;;5034738;28;20930;-52
2022/10/09 08:34:28;;;;;;;10.67;4.73;;;11.90;99.90;;;;;;5016532;28;20522;-52
2022/10/09 08:36:55;;;;;;;13.83;3.77;;;11.90;99.90;;;;;;5034151;28;20465;-52
2022/10/09 08:39:22;;;;;;;12.97;4.70;;;12.00;99.90;;;;;;5034008;28;20527;-52
2022/10/09 08:41:51;;;;;;;11.93;5.07;;;11.80;99.90;;;;;;5034060;28;20802;-51
2022/10/09 08:44:20;;;;;;;8.20;4.33;;;12.30;99.90;;;;;;5033812;28;20465;-51
2022/10/09 08:46:55;;;;;;;39.60;7.33;;;12.00;99.90;;;;;;5034004;28;20434;-52
2022/10/09 08:49:27;;;;;;;14.30;4.27;;;12.00;99.90;;;;;;5033103;28;20412;-50
2022/10/09 08:51:58;;;;;;;12.83;4.53;;;12.00;99.90;;;;;;5034178;28;20441;-50
2022/10/09 08:54:32;;;;;;;12.90;4.57;;;12.00;99.90;;;;;;5033986;28;20461;-50
2022/10/09 08:57:02;;;;;;;16.23;4.50;;;12.60;99.90;;;;;;5034163;28;20483;-51
2022/10/09 08:59:29;;;;;;;8.20;4.80;;;12.20;99.90;;;;;;5033612;28;20429;-51
2022/10/09 09:02:07;;;;;;;10.67;4.47;;;12.60;99.90;;;;;;5034092;28;20491;-51
2022/10/09 09:04:57;;;;;;;11.80;4.60;;;12.20;99.90;;;;;;5034346;28;20438;-52
2022/10/09 09:07:30;;;;;;;10.10;3.90;;;12.20;99.90;;;;;;5033773;28;20921;-51
2022/10/09 09:10:03;;;;;;;11.70;4.53;;;12.10;99.90;;;;;;5033739;28;20441;-51
2022/10/09 09:12:37;;;;;;;17.90;4.50;;;12.70;99.90;;;;;;5033597;28;20462;-51
2022/10/09 09:15:21;;;;;;;13.20;5.30;;;12.70;99.90;;;;;;5015658;28;20959;-51
2022/10/09 09:17:56;;;;;;;10.00;4.27;;;12.80;99.90;;;;;;5033793;28;20474;-51
2022/10/09 09:20:28;;;;;;;13.03;4.00;;;13.00;99.90;;;;;;5015419;28;20446;-52
2022/10/09 09:22:58;;;;;;;8.63;3.60;;;12.50;99.90;;;;;;5033821;28;20462;-52
2022/10/09 09:25:27;;;;;;;11.10;4.20;;;12.60;99.90;;;;;;5033613;28;20540;-52
2022/10/09 09:27:59;;;;;;;8.47;4.00;;;12.70;99.90;;;;;;5033305;28;20434;-52
2022/10/09 09:30:31;;;;;;;18.30;4.30;;;12.60;99.90;;;;;;5033150;28;20447;-52
2022/10/09 09:33:06;;;;;;;7.60;4.50;;;12.80;99.90;;;;;;5015212;28;20905;-51
2022/10/09 09:35:45;;;;;;;13.63;3.83;;;12.90;99.90;;;;;;5033495;28;20427;-51
2022/10/09 09:38:12;;;;;;;7.50;3.37;;;13.30;99.90;;;;;;5015389;28;21009;-51
2022/10/09 09:40:39;;;;;;;7.93;3.90;;;12.80;99.90;;;;;;5032497;28;20787;-50
2022/10/09 09:43:13;;;;;;;12.67;4.43;;;13.20;99.90;;;;;;5033021;28;20460;-49
2022/10/09 09:45:40;;;;;;;12.53;3.57;;;13.40;99.90;;;;;;5032826;28;20433;-51
2022/10/09 09:48:14;;;;;;;14.17;4.03;;;12.90;99.90;;;;;;5032817;28;20516;-50
2022/10/09 09:50:44;;;;;;;12.67;5.30;;;13.10;99.90;;;;;;5032109;28;20446;-51
2022/10/09 09:53:15;;;;;;;11.43;4.37;;;13.00;99.90;;;;;;5014955;28;20854;-51
2022/10/09 09:55:42;;;;;;;9.90;4.17;;;13.10;99.90;;;;;;5032546;28;20430;-51
2022/10/09 09:58:17;;;;;;;9.27;4.40;;;13.10;99.90;;;;;;5033031;28;20463;-51
2022/10/09 10:00:53;;;;;;;10.97;4.40;;;13.20;99.90;;;;;;5031228;28;20437;-51
2022/10/09 10:03:20;;;;;;;10.50;3.87;;;13.10;99.90;;;;;;5032328;28;20464;-51
2022/10/09 10:05:48;;;;;;;8.80;3.83;;;13.20;99.90;;;;;;5032642;28;20782;-51
2022/10/09 10:08:23;;;;;;;10.53;3.77;;;13.80;99.90;;;;;;5032203;28;20431;-51
2022/10/09 10:10:51;;;;;;;10.50;3.27;;;13.40;99.90;;;;;;5032056;28;20839;-51
2022/10/09 10:13:20;;;;;;;16.27;4.00;;;12.90;99.90;;;;;;5032244;28;20476;-50
2022/10/09 10:15:50;;;;;;;8.33;3.10;;;13.90;99.90;;;;;;5032441;28;20437;-51
2022/10/09 10:18:18;;;;;;;11.37;3.20;;;13.60;99.90;;;;;;5032490;28;20538;-52
2022/10/09 10:20:48;;;;;;;12.20;3.93;;;13.30;99.90;;;;;;5031915;28;20450;-51
2022/10/09 10:23:25;;;;;;;7.73;3.20;;;13.80;99.90;;;;;;5031906;28;20466;-53
2022/10/09 10:25:55;;;;;;;10.20;2.60;;;13.80;99.90;;;;;;5031916;28;21012;-51
2022/10/09 10:28:27;;;;;;;13.33;3.10;;;13.70;99.90;;;;;;5032054;28;20776;-51
2022/10/09 10:30:56;;;;;;;8.93;3.13;;;13.80;99.90;;;;;;5032269;28;20463;-50
2022/10/09 10:33:26;;;;;;;8.33;2.63;;;14.40;99.90;;;;;;5032381;28;20676;-49
2022/10/09 10:35:56;;;;;;;7.93;2.57;;;14.30;99.90;;;;;;5031662;28;20538;-49
2022/10/09 10:38:26;;;;;;;6.67;2.70;;;14.10;99.90;;;;;;5031257;28;20956;-49
2022/10/09 10:40:58;;;;;;;12.73;3.80;;;14.20;99.90;;;;;;5031841;28;20748;-49
2022/10/09 10:43:33;;;;;;;10.83;3.53;;;14.30;99.90;;;;;;5031415;28;20460;-50
2022/10/09 10:46:05;;;;;;;7.37;2.30;;;14.30;99.90;;;;;;5031908;28;20427;-50
2022/10/09 10:48:36;;;;;;;6.97;2.40;;;14.10;99.90;;;;;;5031350;28;20431;-50
2022/10/09 10:51:14;;;;;;;11.30;2.30;;;14.40;99.90;;;;;;5031112;28;20797;-50
2022/10/09 10:53:56;;;;;;;6.73;2.50;;;14.60;99.90;;;;;;5031358;28;20502;-50
2022/10/09 10:56:29;;;;;;;6.80;2.43;;;14.60;99.90;;;;;;5031498;28;20450;-50
2022/10/09 10:59:09;;;;;;;8.27;2.43;;;15.10;99.90;;;;;;5030873;28;20951;-49
2022/10/09 11:01:41;;;;;;;8.50;2.00;;;14.60;99.90;;;;;;5031079;28;20436;-50
2022/10/09 11:04:39;;;;;;;6.33;1.80;;;14.90;99.90;;;;;;5031547;28;20482;-51
2022/10/09 11:07:18;;;;;;;12.00;2.30;;;14.90;99.90;;;;;;5030856;28;20543;-49
2022/10/09 11:09:54;;;;;;;4.87;1.87;;;15.30;99.90;;;;;;5030643;28;20431;-51
2022/10/09 11:12:27;;;;;;;7.10;2.67;;;15.10;99.90;;;;;;5030965;28;20955;-51
2022/10/09 11:15:04;;;;;;;8.17;2.70;;;14.90;99.90;;;;;;5031746;28;20432;-51
2022/10/09 11:17:38;;;;;;;6.97;2.10;;;14.90;99.90;;;;;;5030973;28;20516;-50
2022/10/09 11:20:19;;;;;;;7.53;2.90;;;14.90;99.90;;;;;;5030966;28;20442;-51
2022/10/09 11:23:00;;;;;;;11.00;2.53;;;15.10;99.90;;;;;;5031050;28;20474;-51
2022/10/09 11:25:30;;;;;;;11.00;2.20;;;14.90;99.90;;;;;;5031186;28;20530;-50
2022/10/09 11:28:01;;;;;;;8.67;3.10;;;15.00;99.90;;;;;;5031136;28;20474;-49
2022/10/09 11:30:32;;;;;;;5.83;1.87;;;15.40;99.90;;;;;;5030393;28;20534;-50
2022/10/09 11:33:04;;;;;;;11.23;2.20;;;15.10;99.90;;;;;;5031231;28;20475;-51
2022/10/09 11:35:37;;;;;;;5.37;2.40;;;15.20;99.90;;;;;;5031291;28;20526;-51
2022/10/09 11:38:13;;;;;;;9.80;2.07;;;15.60;99.90;;;;;;5031157;28;20532;-50
2022/10/09 11:40:42;;;;;;;5.57;1.93;;;15.20;99.90;;;;;;5030914;28;20432;-50
2022/10/09 11:43:21;;;;;;;11.70;2.67;;;15.70;99.90;;;;;;5030167;28;20459;-50
2022/10/09 11:45:54;;;;;;;9.50;2.30;;;15.10;99.90;;;;;;5031406;28;20439;-50
2022/10/09 11:48:29;;;;;;;8.10;2.00;;;15.20;99.90;;;;;;5030973;28;20467;-50
2022/10/09 11:51:01;;;;;;;8.33;2.47;;;15.50;99.90;;;;;;5031231;28;20440;-50
2022/10/09 11:53:33;;;;;;;7.87;2.07;;;15.40;99.90;;;;;;5030718;28;20447;-49
2022/10/09 11:56:04;;;;;;;4.90;2.27;;;15.80;99.90;;;;;;5030942;28;20532;-49
2022/10/09 11:58:32;;;;;;;9.47;3.40;;;15.30;99.90;;;;;;5030739;28;20483;-50
2022/10/09 12:01:12;;;;;;;5.60;1.70;;;15.90;99.90;;;;;;5031075;28;20442;-50
2022/10/09 12:03:40;;;;;;;9.83;2.93;;;15.50;99.70;;;;;;5030538;28;20462;-49
2022/10/09 12:06:10;;;;;;;5.33;1.90;;;15.50;99.60;;;;;;5030970;28;20753;-50
2022/10/09 12:08:40;;;;;;;4.00;2.03;;;15.30;98.60;;;;;;5012594;28;20832;-50
2022/10/09 12:11:11;;;;;;;4.37;1.50;;;15.60;98.30;;;;;;5030863;28;20442;-50
2022/10/09 12:13:45;;;;;;;6.93;2.10;;;15.50;97.80;;;;;;5012780;28;20478;-51
2022/10/09 12:16:34;;;;;;;12.20;2.20;;;15.60;98.00;;;;;;5030455;28;20447;-50
2022/10/09 12:19:03;;;;;;;5.50;1.80;;;15.50;97.90;;;;;;5030201;28;20495;-50
2022/10/09 12:21:37;;;;;;;5.50;2.20;;;15.60;98.30;;;;;;5030417;28;20428;-50
2022/10/09 12:24:06;;;;;;;5.33;1.83;;;15.40;98.40;;;;;;5031370;28;20461;-50
2022/10/09 12:26:35;;;;;;;6.33;2.40;;;15.70;98.20;;;;;;5034403;28;20854;-50
2022/10/09 12:29:04;;;;;;;8.53;2.30;;;16.10;98.30;;;;;;5033583;28;20436;-50
2022/10/09 12:31:33;;;;;;;12.57;3.17;;;15.90;97.80;;;;;;5033865;28;20431;-50
2022/10/09 12:34:04;;;;;;;4.70;2.20;;;15.90;97.70;;;;;;5015988;28;20542;-51
2022/10/09 12:36:32;;;;;;;9.30;2.23;;;16.00;97.50;;;;;;5034127;28;20431;-50
2022/10/09 12:39:13;;;;;;;6.83;2.03;;;16.00;97.20;;;;;;5033881;28;20550;-50
2022/10/09 12:41:44;;;;;;;4.50;2.10;;;16.10;96.80;;;;;;5033968;28;20818;-50
2022/10/09 12:44:24;;;;;;;4.90;1.80;;;16.00;96.60;;;;;;5033934;28;20464;-50
2022/10/09 12:46:51;;;;;;;8.23;1.73;;;16.10;96.50;;;;;;5033715;28;20443;-52
2022/10/09 12:49:20;;;;;;;6.03;2.17;;;16.00;96.60;;;;;;5033567;28;20425;-50
2022/10/09 12:51:51;;;;;;;4.43;1.77;;;16.10;96.30;;;;;;5033691;28;20447;-51
2022/10/09 12:54:19;;;;;;;4.90;2.30;;;16.00;96.40;;;;;;5033677;28;20459;-50
2022/10/09 12:56:47;;;;;;;9.73;2.13;;;15.70;96.50;;;;;;5033323;28;20439;-50